Time;durP1;ratioP1;P1;durP2;ratioP2;P2;SDS_P1;SDS_P2;PMS_P1;PMS_P2;Temp;Humidity;BMP_temperature;BMP_pressure;BME280_temperature;BME280_humidity;BME280_pressure;Samples;Min_cycle;Max_cycle;Signal;HPM_P1;HPM_P2
2023/06/28 00:02:22;;;;;;;10.27;6.72;;;;;;;22.96;77.49;99668.22;5105854;28;20042;-20
2023/06/28 00:04:48;;;;;;;12.00;6.63;;;;;;;23.13;76.45;99653.94;5105922;28;20031;-18
2023/06/28 00:07:13;;;;;;;12.10;7.30;;;;;;;23.00;76.55;99655.59;5105862;28;20024;-19
2023/06/28 00:09:39;;;;;;;10.18;6.50;;;;;;;22.93;76.80;99669.66;5105606;28;20049;-19
2023/06/28 00:12:04;;;;;;;10.15;6.80;;;;;;;22.74;76.16;99667.16;5106146;28;20417;-19
2023/06/28 00:14:30;;;;;;;12.52;7.65;;;;;;;22.66;77.77;99665.19;5106017;28;20034;-21
2023/06/28 00:16:55;;;;;;;12.40;7.43;;;;;;;22.58;78.84;99663.19;5105577;28;20070;-18
2023/06/28 00:19:26;;;;;;;13.30;7.55;;;;;;;22.81;76.38;99664.78;5105761;28;20088;-19
2023/06/28 00:21:53;;;;;;;14.13;8.00;;;;;;;22.55;78.39;99666.50;5105931;28;20023;-20
2023/06/28 00:24:19;;;;;;;12.15;7.78;;;;;;;22.43;77.36;99662.44;5105779;28;20038;-20
2023/06/28 00:26:44;;;;;;;13.48;8.32;;;;;;;22.51;77.83;99668.25;5105613;28;20035;-20
2023/06/28 00:29:09;;;;;;;17.98;9.23;;;;;;;22.34;77.13;99668.91;5105486;28;20024;-19
2023/06/28 00:31:35;;;;;;;64.07;29.42;;;;;;;22.23;77.42;99652.00;5105808;28;20024;-20
2023/06/28 00:34:00;;;;;;;24.73;10.68;;;;;;;21.90;81.62;99654.91;5105416;28;20028;-18
2023/06/28 00:36:26;;;;;;;33.15;15.73;;;;;;;21.97;80.59;99665.38;5105844;28;20081;-21
2023/06/28 00:38:51;;;;;;;67.13;29.52;;;;;;;21.75;80.25;99664.16;5105388;28;20047;-20
2023/06/28 00:41:17;;;;;;;41.47;16.58;;;;;;;21.97;81.92;99654.50;5105528;28;20020;-20
2023/06/28 00:43:42;;;;;;;38.85;16.27;;;;;;;21.81;81.62;99656.72;5105418;28;20416;-19
2023/06/28 00:46:07;;;;;;;37.80;15.32;;;;;;;21.87;82.90;99660.94;5105326;28;20066;-20
2023/06/28 00:48:34;;;;;;;35.28;15.50;;;;;;;21.91;81.79;99653.81;5105521;28;20027;-19
2023/06/28 00:51:00;;;;;;;34.28;14.98;;;;;;;21.96;81.85;99661.81;5109386;28;20101;-19
2023/06/28 00:53:25;;;;;;;29.88;14.70;;;;;;;21.84;82.37;99650.69;5109305;28;20452;-19
2023/06/28 00:55:51;;;;;;;30.13;13.82;;;;;;;21.73;83.01;99658.25;5109389;28;20059;-18
2023/06/28 00:58:17;;;;;;;30.58;12.75;;;;;;;21.84;82.44;99662.38;5109245;28;20138;-19
2023/06/28 01:00:45;;;;;;;27.35;13.07;;;;;;;21.54;80.36;99652.94;5109197;28;20028;-19
2023/06/28 01:03:10;;;;;;;33.40;14.82;;;;;;;21.54;80.46;99661.06;5109126;28;20023;-19
2023/06/28 01:05:36;;;;;;;21.90;10.30;;;;;;;21.80;82.96;99652.41;5109309;28;20567;-19
2023/06/28 01:08:04;;;;;;;15.52;8.40;;;;;;;21.95;82.67;99652.09;5108951;28;20748;-20
2023/06/28 01:10:30;;;;;;;15.05;8.80;;;;;;;21.76;82.26;99649.50;5108987;28;20023;-19
2023/06/28 01:12:56;;;;;;;21.23;10.18;;;;;;;21.47;83.33;99638.97;5108783;28;20030;-22
2023/06/28 01:15:22;;;;;;;19.58;10.02;;;;;;;21.59;82.63;99643.88;5109116;28;20043;-21
2023/06/28 01:17:47;;;;;;;20.85;10.32;;;;;;;21.21;83.80;99639.44;5108856;28;20118;-19
2023/06/28 01:20:13;;;;;;;20.45;9.35;;;;;;;21.23;85.40;99633.72;5108924;28;20042;-21
2023/06/28 01:22:43;;;;;;;18.52;9.32;;;;;;;21.21;86.40;99636.72;5108682;28;20667;-19
2023/06/28 01:25:10;;;;;;;25.75;13.00;;;;;;;21.40;84.14;99635.81;5108610;28;20084;-19
2023/06/28 01:27:37;;;;;;;22.20;11.60;;;;;;;21.63;83.16;99634.81;5108874;28;20031;-18
2023/06/28 01:30:05;;;;;;;22.17;12.10;;;;;;;21.48;84.03;99646.00;5108637;28;20650;-18
2023/06/28 01:32:30;;;;;;;22.52;10.52;;;;;;;21.46;82.82;99640.88;5108507;28;20045;-19
2023/06/28 01:34:56;;;;;;;16.83;9.35;;;;;;;21.38;82.60;99644.25;5108267;28;20106;-24
2023/06/28 01:37:22;;;;;;;15.52;9.02;;;;;;;21.31;84.25;99654.72;5108516;28;20106;-19
2023/06/28 01:39:48;;;;;;;15.32;8.77;;;;;;;21.07;84.59;99654.88;5108451;28;20180;-19
2023/06/28 01:42:15;;;;;;;17.92;9.30;;;;;;;20.91;84.97;99646.22;5107854;28;20085;-19
2023/06/28 01:44:41;;;;;;;14.30;8.48;;;;;;;20.67;86.94;99651.75;5108490;28;20085;-19
2023/06/28 01:47:06;;;;;;;14.30;7.63;;;;;;;20.81;87.05;99647.19;5108286;28;20054;-18
2023/06/28 01:49:33;;;;;;;14.38;7.65;;;;;;;20.90;86.52;99638.38;5108042;28;20024;-19
2023/06/28 01:51:58;;;;;;;15.27;8.00;;;;;;;21.28;84.70;99655.31;5108295;28;20028;-18
2023/06/28 01:54:24;;;;;;;14.63;7.75;;;;;;;20.94;84.65;99653.72;5108371;28;20464;-18
2023/06/28 01:56:49;;;;;;;11.48;7.45;;;;;;;20.87;85.60;99654.13;5108094;28;20038;-19
2023/06/28 01:59:14;;;;;;;13.68;7.32;;;;;;;20.77;85.68;99658.91;5107930;28;20844;-19
2023/06/28 02:01:44;;;;;;;15.18;8.02;;;;;;;20.77;85.71;99667.84;5107635;28;20034;-19
2023/06/28 02:04:09;;;;;;;13.27;7.07;;;;;;;20.83;84.69;99650.41;5107712;28;20031;-18
2023/06/28 02:06:38;;;;;;;15.55;8.30;;;;;;;20.70;85.65;99658.47;5107997;28;20016;-18
2023/06/28 02:09:03;;;;;;;16.33;8.38;;;;;;;20.61;85.19;99670.00;5107837;28;20027;-18
2023/06/28 02:11:29;;;;;;;11.88;8.32;;;;;;;20.69;87.10;99665.81;5107756;28;20423;-19
2023/06/28 02:13:54;;;;;;;12.50;7.88;;;;;;;20.73;85.50;99672.25;5107623;28;20111;-18
2023/06/28 02:16:22;;;;;;;14.90;8.07;;;;;;;20.83;86.68;99655.81;5107739;28;20376;-18
2023/06/28 02:18:49;;;;;;;14.52;9.27;;;;;;;20.91;86.87;99662.47;5107687;28;20027;-19
2023/06/28 02:21:16;;;;;;;20.55;10.07;;;;;;;21.11;84.99;99664.03;5107689;28;20542;-19
2023/06/28 02:23:41;;;;;;;16.40;9.80;;;;;;;21.07;84.50;99658.38;5089236;28;20104;-19
2023/06/28 02:26:07;;;;;;;15.25;9.38;;;;;;;20.98;86.38;99656.66;5107576;28;20478;-19
2023/06/28 02:28:33;;;;;;;19.83;9.95;;;;;;;21.19;85.86;99652.50;5107767;28;20038;-19
2023/06/28 02:30:58;;;;;;;19.65;10.57;;;;;;;21.43;84.12;99659.66;5107382;28;20085;-19
2023/06/28 02:33:24;;;;;;;18.08;10.05;;;;;;;21.10;83.32;99659.69;5107496;28;20450;-19
2023/06/28 02:35:49;;;;;;;16.80;9.32;;;;;;;20.76;85.81;99650.00;5106822;28;20504;-19
2023/06/28 02:38:14;;;;;;;19.40;9.65;;;;;;;20.75;87.38;99651.09;5107262;28;20111;-19
2023/06/28 02:40:40;;;;;;;16.17;8.77;;;;;;;20.82;86.73;99648.81;5107448;28;20028;-18
2023/06/28 02:43:05;;;;;;;20.40;8.25;;;;;;;20.54;85.61;99644.38;5107100;28;20051;-19
2023/06/28 02:45:30;;;;;;;12.25;7.55;;;;;;;20.37;86.92;99648.41;5107032;28;20032;-18
2023/06/28 02:47:56;;;;;;;13.63;7.70;;;;;;;20.71;88.19;99660.91;5106975;28;20441;-22
2023/06/28 02:50:24;;;;;;;11.27;6.63;;;;;;;20.81;87.65;99674.28;5107110;28;20020;-20
2023/06/28 02:52:49;;;;;;;11.25;7.05;;;;;;;20.55;86.34;99670.34;5106927;28;20062;-18
2023/06/28 02:55:15;;;;;;;14.52;8.52;;;;;;;20.66;86.95;99666.41;5106937;28;20075;-19
2023/06/28 02:57:40;;;;;;;22.70;10.00;;;;;;;20.35;86.66;99661.44;5106497;28;20050;-19
2023/06/28 03:00:07;;;;;;;15.07;8.82;;;;;;;20.37;88.13;99669.25;5106911;28;20027;-20
2023/06/28 03:02:33;;;;;;;14.85;7.50;;;;;;;20.31;88.89;99671.25;5106818;28;20422;-18
2023/06/28 03:04:58;;;;;;;15.05;7.07;;;;;;;20.48;88.30;99674.22;5106615;28;20028;-18
2023/06/28 03:07:24;;;;;;;14.07;7.07;;;;;;;20.77;86.91;99681.41;5106890;28;20028;-19
2023/06/28 03:09:49;;;;;;;10.32;7.00;;;;;;;20.93;85.32;99671.13;5106450;28;20129;-19
2023/06/28 03:12:15;;;;;;;12.23;7.32;;;;;;;20.68;86.79;99669.63;5105942;28;20035;-19
2023/06/28 03:14:40;;;;;;;10.98;7.03;;;;;;;20.89;86.43;99667.38;5106323;28;20024;-18
2023/06/28 03:17:05;;;;;;;10.90;7.10;;;;;;;20.53;85.26;99656.28;5106504;28;20118;-19
2023/06/28 03:19:31;;;;;;;11.38;6.75;;;;;;;20.76;86.56;99671.66;5106410;28;20031;-19
2023/06/28 03:21:56;;;;;;;10.30;7.00;;;;;;;20.94;85.51;99667.28;5106423;28;20106;-20
2023/06/28 03:24:22;;;;;;;11.48;7.57;;;;;;;20.69;85.41;99665.81;5106745;28;20019;-19
2023/06/28 03:26:47;;;;;;;12.93;7.05;;;;;;;20.83;85.98;99685.63;5106455;28;20020;-18
2023/06/28 03:29:13;;;;;;;21.25;10.35;;;;;;;20.83;86.72;99688.34;5106428;28;20118;-19
2023/06/28 03:31:38;;;;;;;27.67;14.93;;;;;;;20.63;86.37;99686.75;5105975;28;20036;-19
2023/06/28 03:34:03;;;;;;;27.55;13.35;;;;;;;20.76;85.61;99693.34;5106167;28;20479;-21
2023/06/28 03:36:31;;;;;;;36.30;14.23;;;;;;;20.39;87.15;99694.97;5106153;28;20102;-18
2023/06/28 03:38:56;;;;;;;36.87;16.97;;;;;;;20.73;86.08;99693.13;5106323;28;20413;-19
2023/06/28 03:41:21;;;;;;;30.77;14.20;;;;;;;20.73;86.58;99688.50;5106156;28;20269;-20
2023/06/28 03:43:47;;;;;;;19.17;11.00;;;;;;;20.58;86.25;99681.44;5105609;28;20096;-20
2023/06/28 03:46:12;;;;;;;15.70;10.43;;;;;;;20.81;86.73;99687.03;5105833;28;20031;-18
2023/06/28 03:48:38;;;;;;;16.98;10.02;;;;;;;20.48;87.64;99679.66;5106036;28;20031;-19
2023/06/28 03:51:03;;;;;;;16.20;9.40;;;;;;;20.45;88.88;99677.53;5105911;28;20026;-19
2023/06/28 03:53:29;;;;;;;13.20;8.38;;;;;;;20.92;87.22;99688.47;5105809;28;20037;-19
2023/06/28 03:55:54;;;;;;;15.40;9.20;;;;;;;20.85;86.24;99694.28;5105975;28;20023;-19
2023/06/28 03:58:20;;;;;;;27.70;9.73;;;;;;;20.73;86.17;99685.00;5105916;28;20114;-19
2023/06/28 04:00:45;;;;;;;17.40;8.50;;;;;;;20.60;87.40;99689.28;5105810;28;20027;-20
2023/06/28 04:03:10;;;;;;;13.57;8.45;;;;;;;20.58;89.53;99686.03;5105737;28;20502;-19
2023/06/28 04:05:36;;;;;;;13.63;7.38;;;;;;;20.95;87.31;99696.00;5105597;28;20023;-18
2023/06/28 04:08:02;;;;;;;14.18;8.13;;;;;;;21.14;86.61;99693.25;5105765;28;20065;-19
2023/06/28 04:10:28;;;;;;;13.27;8.63;;;;;;;21.21;85.16;99692.88;5105633;28;20042;-19
2023/06/28 04:12:53;;;;;;;11.35;8.13;;;;;;;21.24;86.11;99693.06;5105983;28;20039;-19
2023/06/28 04:15:19;;;;;;;11.25;7.43;;;;;;;21.03;86.37;99698.03;5105796;28;20031;-19
2023/06/28 04:17:44;;;;;;;11.02;8.20;;;;;;;20.83;88.36;99680.22;5105687;28;20113;-19
2023/06/28 04:20:10;;;;;;;16.95;8.35;;;;;;;20.90;88.46;99692.56;5105603;28;20020;-18
2023/06/28 04:22:36;;;;;;;11.75;8.70;;;;;;;21.06;88.22;99685.78;5105439;28;20027;-20
2023/06/28 04:25:02;;;;;;;11.27;8.95;;;;;;;21.19;87.22;99689.66;5108296;28;20525;-19
2023/06/28 04:27:28;;;;;;;12.25;8.80;;;;;;;21.32;87.01;99698.91;5109568;28;20051;-19
2023/06/28 04:29:53;;;;;;;14.27;10.25;;;;;;;21.17;88.15;99692.66;5109830;28;20064;-19
2023/06/28 04:32:24;;;;;;;14.00;10.63;;;;;;;21.34;87.36;99685.84;5109652;28;20045;-19
2023/06/28 04:34:52;;;;;;;15.35;10.30;;;;;;;21.01;89.48;99689.41;5109547;28;20023;-19
2023/06/28 04:37:22;;;;;;;15.30;10.52;;;;;;;20.99;90.68;99685.38;5109427;28;20478;-18
2023/06/28 04:39:48;;;;;;;15.10;9.93;;;;;;;21.36;88.53;99700.72;5109360;28;20031;-19
2023/06/28 04:42:14;;;;;;;12.73;10.38;;;;;;;21.49;87.52;99699.13;5109126;28;20043;-19
2023/06/28 04:44:44;;;;;;;14.80;10.50;;;;;;;21.58;87.11;99702.78;5109430;28;20032;-19
2023/06/28 04:47:15;;;;;;;12.85;10.27;;;;;;;21.69;86.30;99697.16;5109087;28;20023;-19
2023/06/28 04:49:49;;;;;;;13.90;11.13;;;;;;;21.86;84.96;99694.63;5109359;28;20081;-19
2023/06/28 04:52:16;;;;;;;13.90;9.70;;;;;;;21.77;85.09;99704.59;5109261;28;20034;-18
2023/06/28 04:54:41;;;;;;;16.83;10.32;;;;;;;21.91;84.60;99699.94;5109326;28;20392;-18
2023/06/28 04:57:08;;;;;;;13.65;9.60;;;;;;;22.20;83.58;99707.75;5108797;28;20030;-19
2023/06/28 04:59:34;;;;;;;15.00;10.32;;;;;;;22.33;84.09;99708.88;5109097;28;20020;-19
2023/06/28 05:01:59;;;;;;;13.77;9.75;;;;;;;22.53;82.14;99709.50;5108877;28;20464;-19
2023/06/28 05:04:24;;;;;;;18.50;10.32;;;;;;;22.71;80.31;99708.53;5109275;28;20547;-19
2023/06/28 05:06:51;;;;;;;15.70;10.02;;;;;;;22.86;79.36;99713.59;5108913;28;20031;-19
2023/06/28 05:09:18;;;;;;;12.35;8.88;;;;;;;22.95;79.89;99715.56;5108632;28;20107;-19
2023/06/28 05:11:43;;;;;;;15.77;10.85;;;;;;;22.95;80.37;99710.13;5108892;28;20036;-19
2023/06/28 05:14:09;;;;;;;15.93;11.05;;;;;;;23.02;80.67;99721.41;5109015;28;20036;-19
2023/06/28 05:16:34;;;;;;;16.02;11.40;;;;;;;22.90;82.69;99702.09;5108709;28;20135;-19
2023/06/28 05:18:59;;;;;;;13.63;10.25;;;;;;;23.11;82.04;99713.28;5108528;28;20036;-19
2023/06/28 05:21:25;;;;;;;16.35;10.50;;;;;;;23.36;81.22;99709.91;5108765;28;20524;-19
2023/06/28 05:23:50;;;;;;;13.00;10.45;;;;;;;23.65;80.20;99712.09;5108639;28;20027;-19
2023/06/28 05:26:16;;;;;;;14.73;11.35;;;;;;;23.84;78.16;99730.13;5108638;28;20020;-19
2023/06/28 05:28:41;;;;;;;12.68;9.40;;;;;;;24.22;75.88;99729.59;5103695;28;20510;-18
2023/06/28 05:31:06;;;;;;;11.85;8.40;;;;;;;24.14;71.91;99733.09;5089563;28;20051;-18
2023/06/28 05:33:32;;;;;;;11.20;8.30;;;;;;;24.25;68.46;99726.22;5069841;28;20023;-19
2023/06/28 05:35:57;;;;;;;11.52;7.93;;;;;;;24.23;68.31;99723.00;5086878;28;20487;-21
2023/06/28 05:38:22;;;;;;;12.68;8.55;;;;;;;24.23;69.60;99728.44;5088185;28;20035;-20
2023/06/28 05:40:54;;;;;;;12.00;8.30;;;;;;;24.21;67.75;99722.53;5087686;28;20028;-19
2023/06/28 05:43:21;;;;;;;12.70;7.68;;;;;;;24.38;65.92;99727.22;5087835;28;20052;-19
2023/06/28 05:45:46;;;;;;;11.18;8.45;;;;;;;24.21;66.85;99717.91;5087745;28;20059;-19
2023/06/28 05:48:12;;;;;;;11.50;7.22;;;;;;;24.36;67.31;99734.91;5087952;28;20032;-18
2023/06/28 05:50:37;;;;;;;10.00;7.53;;;;;;;24.40;66.11;99728.50;5087798;28;20028;-19
2023/06/28 05:53:03;;;;;;;11.13;7.75;;;;;;;24.30;67.19;99717.91;5087795;28;20032;-19
2023/06/28 05:55:28;;;;;;;11.90;8.10;;;;;;;24.64;65.84;99729.94;5087903;28;20038;-22
2023/06/28 05:57:54;;;;;;;11.80;7.78;;;;;;;24.76;64.92;99738.28;5087635;28;20028;-20
2023/06/28 06:00:19;;;;;;;10.68;7.00;;;;;;;24.74;66.23;99735.06;5087789;28;20047;-19
2023/06/28 06:02:44;;;;;;;9.73;7.75;;;;;;;24.62;66.26;99724.03;5087119;28;20036;-19
2023/06/28 06:05:13;;;;;;;12.05;8.38;;;;;;;24.79;67.13;99724.03;5087621;28;20039;-19
2023/06/28 06:07:39;;;;;;;12.18;8.50;;;;;;;24.92;65.71;99727.69;5087741;28;20110;-19
2023/06/28 06:10:05;;;;;;;10.68;8.30;;;;;;;24.91;67.06;99733.47;5087318;28;20024;-19
2023/06/28 06:12:31;;;;;;;11.63;7.75;;;;;;;24.98;67.01;99717.41;5087841;28;20422;-26
2023/06/28 06:14:57;;;;;;;10.13;8.00;;;;;;;24.97;67.86;99722.06;5087411;28;20032;-19
2023/06/28 06:17:22;;;;;;;12.80;7.95;;;;;;;25.12;66.93;99711.78;5087458;28;20027;-19
2023/06/28 06:19:48;;;;;;;11.57;7.88;;;;;;;25.40;65.16;99709.47;5087044;28;20129;-19
2023/06/28 06:22:13;;;;;;;11.32;7.63;;;;;;;25.62;62.75;99708.41;5087242;28;20442;-20
2023/06/28 06:24:39;;;;;;;13.38;8.77;;;;;;;25.78;60.90;99714.13;5087075;28;20028;-19
2023/06/28 06:27:04;;;;;;;12.73;7.45;;;;;;;25.45;59.77;99717.47;5087082;28;20501;-19
2023/06/28 06:29:30;;;;;;;9.65;7.32;;;;;;;25.50;61.54;99714.56;5087022;28;20020;-19
2023/06/28 06:31:55;;;;;;;10.18;7.75;;;;;;;25.88;59.53;99711.00;5087068;28;20036;-19
2023/06/28 06:34:21;;;;;;;14.98;9.82;;;;;;;25.84;57.67;99710.06;5087974;28;20058;-17
2023/06/28 06:36:46;;;;;;;16.00;9.57;;;;;;;25.89;58.18;99706.34;5106700;28;20027;-19
2023/06/28 06:39:12;;;;;;;14.52;9.27;;;;;;;25.82;58.84;99701.41;5105950;28;20486;-20
2023/06/28 06:41:37;;;;;;;15.48;8.55;;;;;;;26.09;57.86;99715.72;5106615;28;20030;-19
2023/06/28 06:44:03;;;;;;;10.48;8.48;;;;;;;26.23;57.40;99708.88;5106743;28;20048;-19
2023/06/28 06:46:28;;;;;;;9.55;7.80;;;;;;;26.40;58.90;99707.97;5106758;28;20516;-18
2023/06/28 06:48:55;;;;;;;10.60;7.72;;;;;;;26.28;58.22;99710.63;5106901;28;20871;-19
2023/06/28 06:51:20;;;;;;;12.70;8.23;;;;;;;26.43;57.79;99710.00;5106898;28;20039;-19
2023/06/28 06:53:46;;;;;;;11.85;7.28;;;;;;;26.30;57.65;99702.09;5088654;28;20475;-19
2023/06/28 06:56:12;;;;;;;11.48;8.35;;;;;;;26.09;57.43;99707.53;5106946;28;20545;-19
2023/06/28 06:58:38;;;;;;;11.43;8.13;;;;;;;26.13;59.32;99703.00;5106699;28;20028;-20
2023/06/28 07:01:04;;;;;;;11.55;8.30;;;;;;;26.45;57.96;99698.75;5106921;28;20031;-19
2023/06/28 07:03:29;;;;;;;11.23;7.95;;;;;;;26.51;59.56;99697.41;5106477;28;20023;-24
2023/06/28 07:05:54;;;;;;;10.48;7.90;;;;;;;26.49;57.37;99690.69;5106662;28;20020;-19
2023/06/28 07:08:20;;;;;;;11.77;7.57;;;;;;;26.53;58.00;99686.16;5106443;28;20038;-20
2023/06/28 07:10:45;;;;;;;10.98;8.20;;;;;;;26.72;58.39;99696.63;5106705;28;20084;-19
2023/06/28 07:13:11;;;;;;;12.10;8.18;;;;;;;26.87;56.09;99687.78;5099360;28;20111;-19
2023/06/28 07:15:36;;;;;;;11.10;8.23;;;;;;;27.10;58.31;99676.44;5106275;28;20031;-19
2023/06/28 07:18:02;;;;;;;10.77;7.97;;;;;;;27.33;55.41;99677.63;5104932;28;20456;-19
2023/06/28 07:20:27;;;;;;;11.95;8.40;;;;;;;27.37;53.28;99678.53;5106010;28;20418;-19
2023/06/28 07:22:53;;;;;;;12.07;8.38;;;;;;;27.32;55.22;99680.69;5106282;28;20128;-21
2023/06/28 07:25:18;;;;;;;9.77;8.25;;;;;;;27.36;54.83;99681.63;5106265;28;20426;-19
2023/06/28 07:27:43;;;;;;;10.88;7.65;;;;;;;27.29;54.40;99667.72;5106350;28;20800;-19
2023/06/28 07:30:09;;;;;;;10.40;8.00;;;;;;;27.54;54.15;99677.50;5106053;28;20020;-20
2023/06/28 07:32:35;;;;;;;12.73;8.02;;;;;;;27.73;54.23;99673.44;5101100;28;20114;-19
2023/06/28 07:35:00;;;;;;;10.30;7.50;;;;;;;27.95;51.95;99675.72;5104856;28;20023;-23
2023/06/28 07:37:26;;;;;;;9.18;7.72;;;;;;;28.09;53.63;99672.56;5105076;28;20036;-19
2023/06/28 07:39:52;;;;;;;11.00;8.38;;;;;;;28.41;51.66;99673.50;5106118;28;20028;-20
2023/06/28 07:42:19;;;;;;;10.68;7.63;;;;;;;28.35;49.86;99663.16;5105612;28;20048;-19
2023/06/28 07:44:44;;;;;;;9.93;8.10;;;;;;;28.55;52.05;99672.38;5106140;28;20115;-18
2023/06/28 07:47:10;;;;;;;9.27;7.10;;;;;;;28.80;49.55;99673.81;5106078;28;20164;-19
2023/06/28 07:49:35;;;;;;;9.18;7.55;;;;;;;28.88;46.89;99669.34;5106041;28;20422;-19
2023/06/28 07:52:01;;;;;;;11.65;7.07;;;;;;;28.96;48.17;99675.81;5105799;28;20034;-20
2023/06/28 07:54:27;;;;;;;10.48;7.38;;;;;;;29.04;46.56;99670.16;5105565;28;20024;-18
2023/06/28 07:56:52;;;;;;;8.68;6.40;;;;;;;28.98;46.85;99670.78;5105334;28;20024;-20
2023/06/28 07:59:20;;;;;;;9.90;7.18;;;;;;;29.23;46.66;99669.47;5104471;28;20521;-19
2023/06/28 08:01:47;;;;;;;9.60;6.88;;;;;;;29.45;43.57;99661.78;5086904;28;20030;-20
2023/06/28 08:04:15;;;;;;;11.48;7.65;;;;;;;29.54;46.93;99658.81;5105290;28;20031;-18
2023/06/28 08:06:41;;;;;;;9.20;7.05;;;;;;;29.69;44.29;99665.44;5105026;28;20499;-20
2023/06/28 08:09:07;;;;;;;10.10;7.35;;;;;;;29.74;44.14;99651.47;5105507;28;20134;-19
2023/06/28 08:11:32;;;;;;;9.20;7.43;;;;;;;29.65;44.48;99665.38;5105464;28;20039;-23
2023/06/28 08:13:58;;;;;;;10.02;7.35;;;;;;;29.82;45.16;99655.97;5105746;28;20047;-20
2023/06/28 08:16:23;;;;;;;9.45;7.30;;;;;;;29.61;44.57;99656.25;5105689;28;20089;-20
2023/06/28 08:18:48;;;;;;;9.05;7.18;;;;;;;29.93;44.62;99657.00;5105589;28;20347;-18
2023/06/28 08:21:14;;;;;;;10.07;7.65;;;;;;;29.82;44.85;99645.75;5105402;28;20139;-19
2023/06/28 08:23:39;;;;;;;13.65;7.43;;;;;;;30.06;43.13;99646.69;5105781;28;20027;-20
2023/06/28 08:26:05;;;;;;;9.13;7.18;;;;;;;30.33;45.41;99646.88;5105582;28;20097;-20
2023/06/28 08:28:31;;;;;;;9.07;6.70;;;;;;;30.41;44.02;99646.63;5105850;28;20119;-19
2023/06/28 08:30:57;;;;;;;9.52;6.72;;;;;;;30.71;46.45;99635.03;5105224;28;20032;-19
2023/06/28 08:33:24;;;;;;;9.43;7.03;;;;;;;30.85;43.51;99639.97;5105672;28;20426;-19
2023/06/28 08:35:50;;;;;;;7.82;5.50;;;;;;;30.93;41.59;99641.72;5105231;28;20152;-20
2023/06/28 08:38:15;;;;;;;13.13;7.05;;;;;;;30.95;41.83;99641.34;5105303;28;20032;-19
2023/06/28 08:40:41;;;;;;;12.07;6.85;;;;;;;30.83;42.49;99637.59;5105355;28;20024;-18
2023/06/28 08:43:09;;;;;;;11.23;6.63;;;;;;;31.07;41.16;99630.16;5105350;28;20050;-18
2023/06/28 08:45:36;;;;;;;8.23;6.05;;;;;;;30.93;39.10;99641.72;5105729;28;20033;-22
2023/06/28 08:48:03;;;;;;;;;;;;;;;30.96;39.54;99629.19;5106037;28;20116;-21
2023/06/28 08:50:28;;;;;;;7.60;6.05;;;;;;;30.94;41.20;99626.78;5105462;28;19919;-17
2023/06/28 08:52:55;;;;;;;8.30;6.00;;;;;;;31.33;41.44;99614.84;5105320;28;20036;-20
2023/06/28 08:55:21;;;;;;;7.35;5.93;;;;;;;31.71;40.74;99622.13;5105511;28;20028;-19
2023/06/28 08:57:47;;;;;;;10.40;6.40;;;;;;;31.55;39.95;99621.50;5104864;28;20035;-20
2023/06/28 09:00:14;;;;;;;8.18;6.20;;;;;;;31.63;39.56;99615.72;5105267;28;20047;-17
2023/06/28 09:02:43;;;;;;;7.57;6.00;;;;;;;31.62;38.61;99625.13;5105115;28;20729;-20
2023/06/28 09:05:10;;;;;;;13.18;6.35;;;;;;;31.60;38.61;99608.16;5105340;28;20054;-21
2023/06/28 09:07:40;;;;;;;7.83;6.00;;;;;;;31.75;37.95;99602.84;5104990;28;20027;-23
2023/06/28 09:10:09;;;;;;;11.82;6.25;;;;;;;31.82;38.72;99595.47;5105754;28;20156;-21
2023/06/28 09:12:35;;;;;;;8.25;5.43;;;;;;;31.84;38.58;99606.13;5108810;28;20027;-22
2023/06/28 09:15:03;;;;;;;9.27;5.57;;;;;;;31.27;40.56;99595.06;5108959;28;20039;-18
2023/06/28 09:17:28;;;;;;;;;;;;;;;31.53;38.87;99597.06;5109357;28;20047;-19
2023/06/28 09:19:59;;;;;;;8.32;5.00;;;;;;;31.90;37.45;99592.81;5108272;28;19911;-19
2023/06/28 09:22:26;;;;;;;7.60;5.07;;;;;;;32.11;38.44;99597.81;5108963;28;20032;-19
2023/06/28 09:24:51;;;;;;;9.43;5.70;;;;;;;32.27;37.03;99595.66;5108717;28;20024;-21
2023/06/28 09:27:16;;;;;;;7.97;5.78;;;;;;;32.30;37.37;99600.41;5108478;28;20031;-19
2023/06/28 09:29:42;;;;;;;8.80;5.18;;;;;;;32.32;36.18;99598.06;5108356;28;20088;-18
2023/06/28 09:32:07;;;;;;;8.05;5.30;;;;;;;32.48;36.46;99589.56;5108303;28;20111;-19
2023/06/28 09:34:36;;;;;;;7.45;5.43;;;;;;;32.52;37.54;99584.09;5108572;28;20016;-19
2023/06/28 09:37:03;;;;;;;7.38;5.63;;;;;;;32.55;36.74;99583.34;5108818;28;20024;-20
2023/06/28 09:39:35;;;;;;;8.48;5.68;;;;;;;32.54;36.59;99581.72;5108263;28;20114;-19
2023/06/28 09:42:01;;;;;;;7.97;5.88;;;;;;;32.83;35.19;99578.09;5108349;28;20027;-19
2023/06/28 09:44:29;;;;;;;7.63;5.37;;;;;;;32.91;37.40;99589.19;5108197;28;20054;-19
2023/06/28 09:46:59;;;;;;;;;;;;;;;32.82;36.07;99584.00;5108753;28;20034;-18
2023/06/28 09:49:24;;;;;;;8.52;5.53;;;;;;;32.61;36.98;99581.81;5108271;28;19911;-19
2023/06/28 09:51:59;;;;;;;7.03;5.10;;;;;;;32.78;37.76;99575.69;5107780;28;20433;-19
2023/06/28 09:54:29;;;;;;;6.97;5.25;;;;;;;32.74;37.26;99563.81;5108201;28;20032;-19
2023/06/28 09:56:58;;;;;;;8.32;5.13;;;;;;;32.82;38.02;99565.47;5108013;28;20019;-20
2023/06/28 09:59:27;;;;;;;9.30;5.22;;;;;;;32.47;37.52;99565.91;5107860;28;20483;-19
2023/06/28 10:01:56;;;;;;;6.28;5.20;;;;;;;32.89;38.10;99563.94;5107918;28;20089;-20
2023/06/28 10:04:23;;;;;;;8.65;4.80;;;;;;;33.22;35.24;99558.31;5108064;28;20543;-19
2023/06/28 10:06:51;;;;;;;6.63;5.00;;;;;;;33.18;33.13;99560.25;5107912;28;20055;-19
2023/06/28 10:09:22;;;;;;;6.95;4.38;;;;;;;33.17;32.91;99568.91;5107855;28;20039;-19
2023/06/28 10:11:48;;;;;;;7.07;4.30;;;;;;;33.22;32.67;99563.81;5107720;28;20502;-19
2023/06/28 10:14:16;;;;;;;6.43;4.37;;;;;;;33.52;32.82;99564.78;5107616;28;20039;-19
2023/06/28 10:16:43;;;;;;;6.30;4.63;;;;;;;33.53;32.03;99558.88;5107766;28;20022;-20
2023/06/28 10:19:09;;;;;;;6.47;4.85;;;;;;;33.70;31.11;99551.09;5107437;28;20096;-18
2023/06/28 10:21:36;;;;;;;10.57;5.10;;;;;;;33.72;33.32;99548.72;5107491;28;20040;-19
2023/06/28 10:24:03;;;;;;;7.45;4.78;;;;;;;33.78;31.62;99547.94;5107479;28;20028;-20
2023/06/28 10:26:30;;;;;;;6.47;4.72;;;;;;;33.88;31.36;99545.59;5107508;28;20031;-19
2023/06/28 10:28:57;;;;;;;6.35;4.97;;;;;;;33.89;31.14;99542.47;5107352;28;20039;-19
2023/06/28 10:31:24;;;;;;;7.53;4.78;;;;;;;34.06;33.39;99532.63;5107352;28;20038;-20
2023/06/28 10:33:50;;;;;;;6.95;5.35;;;;;;;34.12;31.48;99539.34;5107094;28;20027;-20
2023/06/28 10:36:16;;;;;;;11.18;5.00;;;;;;;34.17;31.26;99529.94;5107363;28;20418;-20
2023/06/28 10:38:43;;;;;;;6.23;4.70;;;;;;;34.35;30.61;99532.75;5107224;28;20023;-19
2023/06/28 10:41:16;;;;;;;6.95;4.72;;;;;;;34.23;31.08;99533.91;5107677;28;20035;-20
2023/06/28 10:43:42;;;;;;;8.85;4.53;;;;;;;34.53;30.02;99529.97;5107409;28;20036;-19
2023/06/28 10:46:24;;;;;;;7.22;4.68;;;;;;;34.54;31.02;99531.56;5106913;28;20042;-19
2023/06/28 10:48:53;;;;;;;6.75;4.15;;;;;;;34.75;30.97;99528.81;5106870;28;20036;-18
2023/06/28 10:51:21;;;;;;;6.45;4.80;;;;;;;35.27;28.55;99527.59;5106824;28;20586;-19
2023/06/28 10:53:52;;;;;;;6.60;5.03;;;;;;;35.36;30.02;99525.19;5107001;28;20031;-19
2023/06/28 10:56:19;;;;;;;7.80;4.70;;;;;;;34.89;29.00;99514.16;5106797;28;20059;-20
2023/06/28 10:58:47;;;;;;;8.93;5.30;;;;;;;34.54;30.39;99514.94;5106713;28;20035;-20
2023/06/28 11:01:38;;;;;;;5.75;4.53;;;;;;;34.69;29.78;99524.84;5106983;28;20039;-19
2023/06/28 11:04:22;;;;;;;8.88;4.75;;;;;;;34.58;30.58;99518.50;5106884;28;20055;-19
2023/06/28 11:07:08;;;;;;;7.18;4.88;;;;;;;34.42;30.81;99516.91;5106898;28;20111;-19
2023/06/28 11:09:34;;;;;;;6.88;5.00;;;;;;;35.01;29.27;99513.75;5106431;28;20039;-19
2023/06/28 11:11:59;;;;;;;7.22;5.10;;;;;;;34.83;29.50;99513.00;5106441;28;20038;-19
2023/06/28 11:14:27;;;;;;;6.88;5.00;;;;;;;35.12;29.51;99510.94;5106690;28;20685;-19
2023/06/28 11:17:02;;;;;;;7.88;4.95;;;;;;;35.42;28.87;99506.97;5106573;28;20478;-19
2023/06/28 11:19:28;;;;;;;7.63;5.10;;;;;;;35.75;28.08;99504.88;5106869;28;20033;-19
2023/06/28 11:21:58;;;;;;;6.47;4.47;;;;;;;35.55;29.07;99505.34;5106422;28;20114;-19
2023/06/28 11:24:45;;;;;;;5.85;4.35;;;;;;;35.53;26.99;99493.03;5106464;28;20044;-19